createdAt,value
2019-05-09T00:02:43.603Z,-0.08
2019-05-09T00:06:45.509Z,-0.11
2019-05-09T00:10:47.669Z,-0.11
2019-05-09T00:14:51.314Z,-0.17
2019-05-09T00:18:54.264Z,-0.17
2019-05-09T00:22:56.777Z,-0.15
2019-05-09T00:26:58.936Z,-0.18
2019-05-09T00:31:05.693Z,-0.14
2019-05-09T00:35:14.280Z,-0.15
2019-05-09T00:39:16.303Z,-0.20
2019-05-09T00:43:18.292Z,-0.24
2019-05-09T00:47:26.534Z,-0.27
2019-05-09T00:51:28.596Z,-0.30
2019-05-09T00:55:30.493Z,-0.33
2019-05-09T00:59:33.248Z,-0.38
2019-05-09T01:03:35.338Z,-0.31
2019-05-09T01:07:37.200Z,-0.25
2019-05-09T01:11:39.350Z,-0.21
2019-05-09T01:15:41.176Z,-0.22
2019-05-09T01:19:43.326Z,-0.27
2019-05-09T01:23:45.290Z,-0.33
2019-05-09T01:27:47.256Z,-0.36
2019-05-09T01:31:49.076Z,-0.37
2019-05-09T01:35:50.960Z,-0.39
2019-05-09T01:39:53.419Z,-0.42
2019-05-09T01:43:55.449Z,-0.48
2019-05-09T01:47:57.406Z,-0.48
2019-05-09T01:52:03.388Z,-0.48
2019-05-09T01:56:05.302Z,-0.38
2019-05-09T02:00:07.801Z,-0.29
2019-05-09T02:04:09.677Z,-0.35
2019-05-09T02:08:14.078Z,-0.35
2019-05-09T02:12:15.120Z,-0.43
2019-05-09T02:16:54.205Z,-0.51
2019-05-09T02:20:56.041Z,-0.54
2019-05-09T02:24:58.012Z,-0.56
2019-05-09T02:28:59.923Z,-0.41
2019-05-09T02:33:04.805Z,-0.32
2019-05-09T02:37:05.505Z,-0.15
2019-05-09T02:41:08.641Z,-0.12
2019-05-09T02:45:11.419Z,0.03
2019-05-09T02:49:13.304Z,0.13
2019-05-09T02:53:15.420Z,0.26
2019-05-09T02:57:18.502Z,0.18
2019-05-09T03:01:33.968Z,0.19
2019-05-09T03:05:38.372Z,0.22
2019-05-09T03:09:39.647Z,0.28
2019-05-09T03:13:41.620Z,0.65
2019-05-09T03:17:43.622Z,0.94
2019-05-09T03:21:58.659Z,1.01
2019-05-09T03:26:00.556Z,1.15
2019-05-09T03:30:04.978Z,1.21
2019-05-09T03:34:09.394Z,1.25
2019-05-09T03:38:10.823Z,1.40
2019-05-09T03:42:12.674Z,1.55
2019-05-09T03:46:21.400Z,1.81
2019-05-09T03:50:23.206Z,2.07
2019-05-09T03:54:28.259Z,2.41
2019-05-09T03:58:30.312Z,2.67
2019-05-09T04:02:32.705Z,2.98
2019-05-09T04:06:34.804Z,3.28
2019-05-09T04:10:38.535Z,3.51
2019-05-09T04:14:40.202Z,3.72
2019-05-09T04:18:43.169Z,3.95
2019-05-09T04:22:45.378Z,4.24
2019-05-09T04:27:12.475Z,4.55
2019-05-09T04:31:14.418Z,4.84
2019-05-09T04:35:17.621Z,5.15
2019-05-09T04:39:23.552Z,5.45
2019-05-09T04:43:34.609Z,5.78
2019-05-09T04:47:27.794Z,6.09
2019-05-09T04:51:29.857Z,6.37
2019-05-09T04:55:33.332Z,6.69
2019-05-09T04:59:37.398Z,6.96
2019-05-09T05:03:40.031Z,7.33
2019-05-09T05:07:42.984Z,7.60
2019-05-09T05:11:47.137Z,7.85
2019-05-09T05:15:48.726Z,8.03
2019-05-09T05:19:51.228Z,8.25
2019-05-09T05:24:11.069Z,8.49
2019-05-09T05:28:12.906Z,8.70
2019-05-09T05:32:24.293Z,9.00
2019-05-09T05:36:27.950Z,9.19
2019-05-09T05:40:33.351Z,9.42
2019-05-09T05:44:33.562Z,9.55
2019-05-09T05:48:38.144Z,9.65
2019-05-09T05:52:39.744Z,9.83
2019-05-09T05:56:41.813Z,9.93
2019-05-09T06:00:43.651Z,10.12
2019-05-09T06:04:45.528Z,10.30
2019-05-09T06:08:48.489Z,10.51
2019-05-09T06:12:50.596Z,10.67
2019-05-09T06:16:52.710Z,10.83
2019-05-09T06:20:54.575Z,11.01
2019-05-09T06:24:58.242Z,11.14
2019-05-09T06:28:59.984Z,11.50
2019-05-09T06:33:04.888Z,11.66
2019-05-09T06:37:08.611Z,11.79
2019-05-09T06:41:12.087Z,11.99
2019-05-09T06:45:31.343Z,11.86
2019-05-09T06:49:37.790Z,11.65
2019-05-09T06:53:39.862Z,11.68
2019-05-09T06:57:43.162Z,11.87
2019-05-09T07:01:59.843Z,12.04
2019-05-09T07:06:19.223Z,12.15
2019-05-09T07:10:21.194Z,12.34
2019-05-09T07:14:33.310Z,12.59
2019-05-09T07:18:33.864Z,12.47
2019-05-09T07:22:39.424Z,12.59
2019-05-09T07:26:41.536Z,12.59
2019-05-09T07:31:11.591Z,12.82
2019-05-09T07:35:12.943Z,12.95
2019-05-09T07:39:14.758Z,12.84
2019-05-09T07:43:18.005Z,12.58
2019-05-09T07:47:20.131Z,12.83
2019-05-09T07:51:22.508Z,12.59
2019-05-09T07:55:24.344Z,12.50
2019-05-09T07:59:27.468Z,12.49
2019-05-09T08:03:29.461Z,12.57
2019-05-09T08:07:33.208Z,12.55
2019-05-09T08:11:37.479Z,12.77
2019-05-09T08:15:38.679Z,13.06
2019-05-09T08:19:40.494Z,13.29
2019-05-09T08:23:42.500Z,13.31
2019-05-09T08:27:44.671Z,13.16
2019-05-09T08:31:48.580Z,13.33
2019-05-09T08:35:52.623Z,13.63
2019-05-09T08:39:54.151Z,13.73
2019-05-09T08:43:57.546Z,13.58
2019-05-09T08:47:59.745Z,13.64
2019-05-09T08:52:13.037Z,13.82
2019-05-09T08:56:12.929Z,14.00
2019-05-09T09:00:14.441Z,13.98
2019-05-09T09:04:18.815Z,14.02
2019-05-09T09:08:20.159Z,14.17
2019-05-09T09:12:30.285Z,14.07
2019-05-09T09:16:28.170Z,14.20
2019-05-09T09:20:29.540Z,14.33
2019-05-09T09:24:31.627Z,14.57
2019-05-09T09:28:33.506Z,14.39
2019-05-09T09:32:38.526Z,14.11
2019-05-09T09:36:39.605Z,14.21
2019-05-09T09:40:41.470Z,14.56
2019-05-09T09:44:43.864Z,14.68
2019-05-09T09:48:48.019Z,14.71
2019-05-09T09:52:49.760Z,14.73
2019-05-09T09:56:53.452Z,14.87
2019-05-09T10:01:08.989Z,15.04
2019-05-09T10:05:11.331Z,15.64
2019-05-09T10:09:13.357Z,15.66
2019-05-09T10:13:15.273Z,15.64
2019-05-09T10:17:42.368Z,15.62
2019-05-09T10:21:48.761Z,15.68
2019-05-09T10:25:51.163Z,15.35
2019-05-09T10:29:52.989Z,15.48
2019-05-09T10:33:54.986Z,15.75
2019-05-09T10:37:58.906Z,15.38
2019-05-09T10:42:02.325Z,15.30
2019-05-09T10:46:15.496Z,15.41
2019-05-09T10:50:18.352Z,15.76
2019-05-09T10:54:20.599Z,15.91
2019-05-09T10:58:23.845Z,15.90
2019-05-09T11:02:27.925Z,15.51
2019-05-09T11:06:29.467Z,15.53
2019-05-09T11:10:33.043Z,15.49
2019-05-09T11:14:37.518Z,15.43
2019-05-09T11:18:38.936Z,15.84
2019-05-09T11:22:40.993Z,15.56
2019-05-09T11:26:42.928Z,15.28
2019-05-09T11:30:44.830Z,15.22
2019-05-09T11:34:48.651Z,15.39
2019-05-09T11:38:51.091Z,15.30
2019-05-09T11:42:53.011Z,15.23
2019-05-09T11:46:55.216Z,15.08
2019-05-09T11:50:58.220Z,15.06
2019-05-09T11:55:00.809Z,15.00
2019-05-09T11:59:02.668Z,14.97
2019-05-09T12:03:04.551Z,15.09
2019-05-09T12:07:07.928Z,15.40
2019-05-09T12:11:10.110Z,15.43
2019-05-09T12:15:12.157Z,15.36
2019-05-09T12:19:14.110Z,15.28
2019-05-09T12:23:19.636Z,15.46
2019-05-09T12:27:19.803Z,15.43
2019-05-09T12:31:22.847Z,15.68
2019-05-09T12:35:24.837Z,15.50
2019-05-09T12:39:27.499Z,15.09
2019-05-09T12:43:29.876Z,15.53
2019-05-09T12:47:31.882Z,15.27
2019-05-09T12:51:33.875Z,15.21
2019-05-09T12:55:38.279Z,15.56
2019-05-09T12:59:48.450Z,15.83
2019-05-09T13:03:43.054Z,15.85
2019-05-09T13:07:44.892Z,15.59
2019-05-09T13:11:48.252Z,15.67
2019-05-09T13:16:11.991Z,15.39
2019-05-09T13:20:14.413Z,15.31
2019-05-09T13:24:19.643Z,14.83
2019-05-09T13:28:20.288Z,14.72
2019-05-09T13:32:22.524Z,14.90
2019-05-09T13:36:28.131Z,15.39
2019-05-09T13:40:29.614Z,15.38
2019-05-09T13:44:31.476Z,15.51
2019-05-09T13:48:57.253Z,15.93
2019-05-09T13:52:38.735Z,15.95
2019-05-09T13:56:40.650Z,16.18
2019-05-09T14:00:55.875Z,16.60
2019-05-09T14:04:48.614Z,16.91
2019-05-09T14:08:51.137Z,16.81
2019-05-09T14:13:05.829Z,16.38
2019-05-09T14:16:59.010Z,16.58
2019-05-09T14:21:00.221Z,16.41
2019-05-09T14:29:50.259Z,16.33
2019-05-09T14:34:02.881Z,17.38
2019-05-09T14:38:11.802Z,18.02
2019-05-09T14:42:13.759Z,17.70
2019-05-09T14:46:18.238Z,18.58
2019-05-09T14:50:19.543Z,19.32
2019-05-09T14:54:21.793Z,19.54
2019-05-09T14:58:23.667Z,20.02
2019-05-09T15:02:25.537Z,21.04
2019-05-09T15:06:28.256Z,21.37
2019-05-09T15:10:30.373Z,20.66
2019-05-09T15:14:32.333Z,20.84
2019-05-09T15:18:34.983Z,19.87
2019-05-09T15:22:38.765Z,20.50
2019-05-09T15:26:40.544Z,21.73
2019-05-09T15:30:42.363Z,21.02
2019-05-09T15:34:44.257Z,20.97
2019-05-09T15:38:48.458Z,20.88
2019-05-09T15:42:50.089Z,20.51
2019-05-09T15:47:07.564Z,20.24
2019-05-09T15:51:09.759Z,20.12
2019-05-09T15:55:12.513Z,19.97
2019-05-09T15:59:14.408Z,18.55
2019-05-09T16:03:18.442Z,17.00
2019-05-09T16:07:20.235Z,16.20
2019-05-09T16:11:22.089Z,15.81
2019-05-09T16:15:28.164Z,15.43
2019-05-09T16:19:28.941Z,14.92
2019-05-09T16:23:30.851Z,14.35
2019-05-09T16:27:34.265Z,14.14
2019-05-09T16:31:38.794Z,14.21
2019-05-09T16:35:39.905Z,13.95
2019-05-09T16:39:42.105Z,13.91
2019-05-09T16:43:43.935Z,14.02
2019-05-09T16:47:48.366Z,14.06
2019-05-09T16:51:49.807Z,13.93
2019-05-09T16:55:51.658Z,13.95
2019-05-09T16:59:53.491Z,14.04
2019-05-09T17:03:57.455Z,13.83
2019-05-09T17:07:58.960Z,13.55
2019-05-09T17:12:00.982Z,13.38
2019-05-09T17:16:02.856Z,13.34
2019-05-09T17:20:05.204Z,13.19
2019-05-09T17:24:09.703Z,13.01
2019-05-09T17:28:11.725Z,12.93
2019-05-09T17:32:13.709Z,12.81
2019-05-09T17:36:18.037Z,12.66
2019-05-09T17:40:19.382Z,12.53
2019-05-09T17:44:21.378Z,12.45
2019-05-09T17:48:25.053Z,12.40
2019-05-09T17:52:26.972Z,12.22
2019-05-09T17:56:28.811Z,12.06
2019-05-09T18:00:31.116Z,11.99
2019-05-09T18:04:33.086Z,12.07
2019-05-09T18:08:37.563Z,11.99
2019-05-09T18:12:38.784Z,11.79
2019-05-09T18:16:40.745Z,11.65
2019-05-09T18:20:43.225Z,11.54
2019-05-09T18:24:45.235Z,11.44
2019-05-09T18:28:47.929Z,11.33
2019-05-09T18:33:07.541Z,11.28
2019-05-09T18:37:09.516Z,11.27
2019-05-09T18:41:11.447Z,11.29
2019-05-09T18:45:17.375Z,11.17
2019-05-09T18:49:19.638Z,11.04
2019-05-09T18:53:22.325Z,11.03
2019-05-09T18:57:24.305Z,10.89
2019-05-09T19:01:26.159Z,10.73
2019-05-09T19:05:28.091Z,10.61
2019-05-09T19:09:29.954Z,10.47
2019-05-09T19:13:31.919Z,10.56
2019-05-09T19:18:02.016Z,10.47
2019-05-09T19:22:21.041Z,10.52
2019-05-09T19:26:27.612Z,10.37
2019-05-09T19:30:29.523Z,10.31
2019-05-09T19:34:31.391Z,10.30
2019-05-09T19:38:33.327Z,10.10
2019-05-09T19:42:35.253Z,10.06
2019-05-09T19:46:37.260Z,10.04
2019-05-09T19:50:39.693Z,9.94
2019-05-09T19:54:41.559Z,9.85
2019-05-09T19:58:43.387Z,9.94
2019-05-09T20:02:45.336Z,9.88
2019-05-09T20:06:47.266Z,9.78
2019-05-09T20:11:23.286Z,9.79
2019-05-09T20:15:25.795Z,9.70
2019-05-09T20:19:27.754Z,9.57
2019-05-09T20:23:29.616Z,9.53
2019-05-09T20:27:31.564Z,9.52
2019-05-09T20:31:33.405Z,9.43
2019-05-09T20:35:35.307Z,9.34
2019-05-09T20:39:37.422Z,9.39
2019-05-09T20:43:39.481Z,9.25
2019-05-09T20:47:41.488Z,9.07
2019-05-09T20:51:43.834Z,9.09
2019-05-09T20:55:45.845Z,8.98
2019-05-09T20:59:47.885Z,8.93
2019-05-09T21:03:59.420Z,8.84
2019-05-09T21:07:53.676Z,8.76
2019-05-09T21:11:55.803Z,8.67
2019-05-09T21:15:57.906Z,8.62
2019-05-09T21:19:59.948Z,8.51
2019-05-09T21:24:02.027Z,8.60
2019-05-09T21:28:05.341Z,8.43
2019-05-09T21:32:08.558Z,8.26
2019-05-09T21:36:10.477Z,8.17
2019-05-09T21:40:12.972Z,8.04
2019-05-09T21:44:15.059Z,8.07
2019-05-09T21:48:17.173Z,8.12
2019-05-09T21:52:19.631Z,8.07
2019-05-09T21:56:21.680Z,7.94
2019-05-09T22:00:29.236Z,7.94
2019-05-09T22:04:32.438Z,7.88
2019-05-09T22:08:34.252Z,7.85
2019-05-09T22:12:36.215Z,7.74
2019-05-09T22:16:38.027Z,7.76
2019-05-09T22:20:39.933Z,7.74
2019-05-09T22:24:41.749Z,7.64
2019-05-09T22:28:43.620Z,7.49
2019-05-09T22:32:45.550Z,7.50
2019-05-09T22:36:47.490Z,7.50
2019-05-09T22:40:49.597Z,7.50
2019-05-09T22:44:51.471Z,7.40
2019-05-09T22:48:53.283Z,7.29
2019-05-09T22:52:55.522Z,7.20
2019-05-09T22:56:57.351Z,7.16
2019-05-09T23:00:59.242Z,7.05
2019-05-09T23:05:01.103Z,6.94
2019-05-09T23:09:04.494Z,6.92
2019-05-09T23:13:06.378Z,6.83
2019-05-09T23:17:09.520Z,6.73
2019-05-09T23:21:12.377Z,6.52
2019-05-09T23:25:14.412Z,6.39
2019-05-09T23:29:16.411Z,6.56
2019-05-09T23:33:18.371Z,6.53
2019-05-09T23:37:20.159Z,6.55
2019-05-09T23:41:22.031Z,6.56
2019-05-09T23:45:23.840Z,6.48
2019-05-09T23:49:25.713Z,6.46
2019-05-09T23:53:36.019Z,6.43
2019-05-09T23:57:55.473Z,6.48
